< < Back
Terminal Aerodrome Forecast


Current Version              Previous Versions:   1  2  3  4  5  6  7  8  9  

Terminal Aerodrome Forecast

680
FTUS44 KOHX 020100 AAA
TAFBNA
TAF AMD
KBNA 020107Z 0201/0224 22005KT P6SM SCT250
     FM021000 19004KT P6SM BKN050 OVC150
     FM022200 24007KT 4SM TSRA OVC050CB=



Latest METAR

273
SAUS70 KWBC 021200 RRA
MTRBNA
METAR KBNA 021153Z 18005KT 10SM FEW047 BKN100 BKN200 23/21 A3006 RMK AO2
SLP173 T02280211 10239 20217 51012


USA.gov is the U.S. government's official web portal to all federal, state and local government web resources and services.